createdAt,value
2023-02-06T00:00:01.556Z,48.58
2023-02-06T00:02:27.847Z,34.42
2023-02-06T00:04:54.161Z,58.15
2023-02-06T00:07:20.455Z,53.03
2023-02-06T00:09:46.689Z,50.47
2023-02-06T00:12:13.908Z,39.58
2023-02-06T00:14:40.189Z,42.03
2023-02-06T00:17:06.433Z,42.58
2023-02-06T00:19:32.724Z,34.53
2023-02-06T00:21:58.961Z,41.22
2023-02-06T00:24:25.245Z,44.63
2023-02-06T00:26:51.550Z,37.85
2023-02-06T00:29:17.814Z,40.58
2023-02-06T00:31:44.195Z,40.17
2023-02-06T00:34:10.562Z,39.85
2023-02-06T00:36:36.914Z,51.50
2023-02-06T00:39:03.336Z,39.47
2023-02-06T00:41:29.613Z,42.25
2023-02-06T00:43:55.898Z,42.08
2023-02-06T00:46:22.220Z,47.20
2023-02-06T00:48:48.534Z,43.33
2023-02-06T00:51:14.824Z,45.70
2023-02-06T00:53:41.135Z,37.80
2023-02-06T00:56:07.412Z,39.90
2023-02-06T00:58:33.729Z,35.58
2023-02-06T01:01:00.044Z,34.10
2023-02-06T01:03:26.348Z,54.60
2023-02-06T01:05:52.568Z,38.22
2023-02-06T01:08:18.803Z,46.47
2023-02-06T01:10:45.056Z,45.28
2023-02-06T01:13:11.322Z,44.13
2023-02-06T01:15:37.864Z,41.80
2023-02-06T01:18:04.509Z,32.88
2023-02-06T01:20:31.506Z,35.20
2023-02-06T01:22:57.857Z,31.73
2023-02-06T01:25:24.096Z,32.92
2023-02-06T01:27:50.386Z,37.97
2023-02-06T01:30:16.654Z,32.05
2023-02-06T01:32:43.120Z,40.03
2023-02-06T01:35:10.656Z,36.22
2023-02-06T01:37:37.367Z,45.05
2023-02-06T01:40:04.517Z,31.33
2023-02-06T01:42:33.658Z,41.10
2023-02-06T01:45:18.384Z,36.33
2023-02-06T01:47:44.646Z,38.42
2023-02-06T01:50:11.924Z,34.92
2023-02-06T01:52:38.240Z,37.40
2023-02-06T01:55:04.853Z,36.80
2023-02-06T01:57:31.812Z,36.47
2023-02-06T01:59:59.725Z,34.55
2023-02-06T02:02:27.371Z,26.90
2023-02-06T02:04:54.177Z,43.53
2023-02-06T02:07:24.752Z,43.90
2023-02-06T02:09:51.688Z,50.10
2023-02-06T02:12:19.066Z,47.05
2023-02-06T02:14:46.661Z,41.28
2023-02-06T02:17:12.868Z,40.00
2023-02-06T02:20:05.486Z,47.38
2023-02-06T02:22:34.544Z,37.50
2023-02-06T02:25:03.891Z,33.28
2023-02-06T02:27:48.693Z,47.53
2023-02-06T02:30:33.733Z,38.58
2023-02-06T02:33:14.980Z,32.72
2023-02-06T02:35:47.873Z,57.15
2023-02-06T02:38:14.153Z,34.90
2023-02-06T02:40:43.152Z,30.95
2023-02-06T02:43:09.452Z,29.00
2023-02-06T02:45:41.688Z,30.35
2023-02-06T02:48:10.808Z,32.05
2023-02-06T02:50:37.678Z,27.35
2023-02-06T02:53:05.128Z,41.47
2023-02-06T02:55:31.417Z,33.45
2023-02-06T02:58:02.642Z,35.33
2023-02-06T03:00:29.895Z,33.50
2023-02-06T03:02:57.304Z,30.40
2023-02-06T03:05:24.523Z,35.42
2023-02-06T03:08:10.778Z,34.80
2023-02-06T03:10:37.044Z,25.33
2023-02-06T03:13:16.256Z,32.25
2023-02-06T03:15:57.245Z,36.72
2023-02-06T03:18:37.427Z,32.35
2023-02-06T03:21:05.076Z,33.08
2023-02-06T03:23:34.586Z,32.70
2023-02-06T03:26:02.876Z,39.35
2023-02-06T03:28:34.707Z,21.05
2023-02-06T03:31:02.937Z,29.48
2023-02-06T03:33:33.504Z,21.38
2023-02-06T03:36:00.399Z,24.13
2023-02-06T03:38:27.668Z,37.00
2023-02-06T03:40:54.567Z,25.10
2023-02-06T03:43:22.570Z,44.50
2023-02-06T03:45:50.361Z,38.10
2023-02-06T03:48:37.160Z,22.30
2023-02-06T03:51:06.555Z,24.58
2023-02-06T03:53:33.844Z,23.42
2023-02-06T03:56:04.695Z,22.85
2023-02-06T03:58:30.973Z,16.92
2023-02-06T04:00:57.353Z,28.85
2023-02-06T04:03:24.035Z,27.65
2023-02-06T04:05:50.319Z,29.25
2023-02-06T04:08:16.624Z,21.70
2023-02-06T04:10:42.852Z,36.60
2023-02-06T04:13:09.116Z,17.80
2023-02-06T04:15:35.736Z,27.27
2023-02-06T04:18:03.133Z,32.08
2023-02-06T04:20:29.758Z,22.85
2023-02-06T04:22:56.460Z,30.88
2023-02-06T04:25:22.825Z,35.90
2023-02-06T04:27:49.269Z,36.40
2023-02-06T04:30:17.221Z,30.63
2023-02-06T04:32:43.950Z,35.38
2023-02-06T04:35:10.512Z,24.27
2023-02-06T04:37:37.584Z,36.22
2023-02-06T04:40:04.135Z,23.02
2023-02-06T04:42:30.594Z,16.02
2023-02-06T04:44:56.896Z,28.45
2023-02-06T04:47:23.197Z,29.58
2023-02-06T04:49:49.471Z,28.38
2023-02-06T04:52:15.764Z,29.15
2023-02-06T04:54:42.033Z,21.92
2023-02-06T04:57:08.282Z,26.75
2023-02-06T04:59:34.551Z,27.90
2023-02-06T05:02:00.880Z,20.60
2023-02-06T05:04:27.284Z,24.27
2023-02-06T05:06:53.601Z,32.22
2023-02-06T05:09:19.888Z,36.13
2023-02-06T05:11:46.175Z,26.35
2023-02-06T05:14:12.440Z,26.98
2023-02-06T05:16:38.671Z,33.90
2023-02-06T05:19:05.024Z,25.38
2023-02-06T05:21:31.312Z,23.02
2023-02-06T05:23:57.696Z,19.67
2023-02-06T05:26:23.997Z,16.95
2023-02-06T05:28:50.220Z,18.50
2023-02-06T05:31:19.819Z,18.88
2023-02-06T05:33:52.503Z,16.95
2023-02-06T05:36:19.663Z,28.25
2023-02-06T05:38:45.965Z,20.67
2023-02-06T05:41:12.255Z,17.00
2023-02-06T05:43:38.574Z,21.83
2023-02-06T05:46:04.876Z,24.73
2023-02-06T05:48:32.733Z,14.07
2023-02-06T05:50:59.026Z,16.67
2023-02-06T05:53:25.299Z,20.48
2023-02-06T05:55:51.589Z,20.17
2023-02-06T05:58:18.462Z,28.65
2023-02-06T06:00:45.015Z,39.90
2023-02-06T06:03:11.308Z,21.73
2023-02-06T06:05:37.837Z,29.65
2023-02-06T06:08:04.352Z,37.38
2023-02-06T06:10:30.617Z,30.73
2023-02-06T06:12:57.154Z,26.20
2023-02-06T06:15:23.406Z,27.52
2023-02-06T06:17:49.748Z,30.73
2023-02-06T06:20:16.219Z,30.92
2023-02-06T06:22:42.532Z,29.65
2023-02-06T06:25:08.977Z,25.75
2023-02-06T06:27:35.330Z,47.35
2023-02-06T06:30:01.659Z,29.30
2023-02-06T06:32:27.905Z,19.90
2023-02-06T06:34:54.132Z,36.28
2023-02-06T06:37:20.376Z,34.75
2023-02-06T06:39:46.640Z,31.70
2023-02-06T06:42:12.984Z,17.73
2023-02-06T06:44:39.214Z,25.40
2023-02-06T06:47:05.681Z,26.92
2023-02-06T06:49:33.221Z,19.63
2023-02-06T06:51:59.488Z,19.30
2023-02-06T06:54:25.829Z,34.85
2023-02-06T06:56:52.120Z,37.75
2023-02-06T06:59:18.352Z,34.85
2023-02-06T07:01:44.701Z,21.10
2023-02-06T07:04:11.004Z,29.77
2023-02-06T07:06:37.253Z,20.02
2023-02-06T07:09:03.533Z,33.28
2023-02-06T07:11:29.837Z,31.98
2023-02-06T07:13:56.082Z,48.17
2023-02-06T07:16:22.832Z,41.47
2023-02-06T07:18:49.137Z,26.13
2023-02-06T07:21:15.947Z,47.60
2023-02-06T07:23:42.462Z,38.90
2023-02-06T07:26:08.845Z,24.33
2023-02-06T07:28:35.201Z,28.77
2023-02-06T07:31:02.370Z,30.63
2023-02-06T07:33:28.947Z,21.17
2023-02-06T07:35:55.231Z,25.75
2023-02-06T07:38:21.467Z,33.10
2023-02-06T07:40:47.749Z,28.67
2023-02-06T07:43:13.991Z,24.85
2023-02-06T07:45:40.628Z,34.67
2023-02-06T07:48:07.420Z,43.42
2023-02-06T07:50:33.738Z,28.33
2023-02-06T07:53:00.121Z,39.00
2023-02-06T07:55:26.382Z,35.78
2023-02-06T07:57:52.873Z,31.65
2023-02-06T08:00:19.222Z,32.38
2023-02-06T08:02:45.468Z,43.05
2023-02-06T08:05:11.771Z,41.45
2023-02-06T08:07:38.064Z,42.67
2023-02-06T08:10:04.858Z,56.65
2023-02-06T08:12:31.160Z,46.15
2023-02-06T08:14:57.467Z,53.83
2023-02-06T08:17:23.761Z,37.60
2023-02-06T08:19:50.074Z,43.30
2023-02-06T08:22:16.404Z,50.80
2023-02-06T08:24:42.708Z,44.35
2023-02-06T08:27:09.108Z,40.22
2023-02-06T08:29:42.390Z,39.20
2023-02-06T08:32:09.600Z,46.30
2023-02-06T08:34:36.533Z,43.50
2023-02-06T08:37:02.809Z,26.27
2023-02-06T08:39:29.076Z,39.90
2023-02-06T08:41:55.441Z,31.13
2023-02-06T08:44:21.805Z,42.83
2023-02-06T08:46:49.587Z,29.98
2023-02-06T08:49:20.040Z,43.65
2023-02-06T08:51:47.010Z,31.90
2023-02-06T08:54:14.765Z,32.33
2023-02-06T08:56:41.093Z,38.38
2023-02-06T08:59:07.607Z,32.28
2023-02-06T09:01:34.861Z,37.80
2023-02-06T09:04:02.669Z,28.52
2023-02-06T09:06:29.398Z,35.35
2023-02-06T09:08:56.533Z,33.88
2023-02-06T09:11:23.690Z,25.92
2023-02-06T09:13:50.591Z,31.90
2023-02-06T09:16:18.178Z,33.97
2023-02-06T09:18:44.635Z,32.55
2023-02-06T09:21:12.725Z,33.60
2023-02-06T09:23:40.061Z,42.65
2023-02-06T09:26:07.629Z,34.22
2023-02-06T09:28:34.105Z,36.85
2023-02-06T09:31:00.615Z,28.25
2023-02-06T09:33:27.272Z,32.22
2023-02-06T09:36:04.064Z,26.23
2023-02-06T09:38:30.349Z,26.63
2023-02-06T09:40:57.733Z,34.55
2023-02-06T09:43:24.460Z,26.08
2023-02-06T09:45:59.290Z,35.42
2023-02-06T09:48:27.236Z,24.95
2023-02-06T09:51:05.637Z,24.45
2023-02-06T09:53:37.729Z,24.35
2023-02-06T09:56:14.016Z,18.60
2023-02-06T09:59:05.750Z,27.13
2023-02-06T10:01:41.467Z,27.73
2023-02-06T10:04:27.474Z,32.92
2023-02-06T10:06:56.848Z,37.03
2023-02-06T10:09:32.042Z,25.30
2023-02-06T10:12:13.118Z,31.52
2023-02-06T10:14:48.420Z,40.67
2023-02-06T10:17:20.133Z,31.98
2023-02-06T10:19:52.274Z,32.60
2023-02-06T10:22:36.837Z,43.10
2023-02-06T10:25:06.122Z,47.95
2023-02-06T10:27:33.617Z,41.90
2023-02-06T10:30:00.523Z,45.08
2023-02-06T10:32:36.073Z,28.23
2023-02-06T10:35:21.264Z,34.13
2023-02-06T10:37:53.473Z,37.00
2023-02-06T10:40:25.555Z,28.50
2023-02-06T10:43:03.085Z,40.22
2023-02-06T10:45:55.574Z,45.13
2023-02-06T10:48:29.078Z,25.23
2023-02-06T10:50:55.439Z,37.78
2023-02-06T10:53:34.969Z,35.75
2023-02-06T10:56:12.924Z,29.40
2023-02-06T10:58:42.228Z,20.80
2023-02-06T11:01:24.780Z,29.17
2023-02-06T11:04:12.504Z,24.38
2023-02-06T11:06:40.192Z,22.08
2023-02-06T11:09:06.471Z,24.23
2023-02-06T11:11:36.896Z,28.60
2023-02-06T11:16:30.960Z,23.48
2023-02-06T11:19:01.026Z,29.20
2023-02-06T11:21:45.992Z,19.27
2023-02-06T11:24:13.641Z,22.50
2023-02-06T11:26:40.837Z,25.52
2023-02-06T11:29:15.137Z,18.60
2023-02-06T11:31:46.113Z,24.05
2023-02-06T11:34:21.353Z,22.02
2023-02-06T11:36:51.361Z,21.27
2023-02-06T11:39:22.373Z,34.75
2023-02-06T11:42:11.680Z,30.17
2023-02-06T11:44:39.738Z,25.80
2023-02-06T11:47:21.083Z,27.80
2023-02-06T11:49:47.681Z,24.45
2023-02-06T11:52:27.036Z,21.15
2023-02-06T11:54:53.838Z,25.23
2023-02-06T11:57:21.952Z,21.77
2023-02-06T11:59:56.389Z,24.70
2023-02-06T12:02:27.499Z,25.13
2023-02-06T12:04:58.356Z,26.83
2023-02-06T12:07:33.766Z,19.52
2023-02-06T12:10:02.666Z,24.40
2023-02-06T12:12:30.896Z,26.00
2023-02-06T12:15:10.264Z,16.80
2023-02-06T12:17:48.318Z,20.63
2023-02-06T12:20:22.508Z,18.48
2023-02-06T12:22:54.772Z,19.23
2023-02-06T12:25:23.824Z,17.10
2023-02-06T12:27:51.016Z,23.52
2023-02-06T12:30:28.345Z,16.98
2023-02-06T12:33:03.328Z,16.75
2023-02-06T12:35:32.355Z,23.15
2023-02-06T12:38:07.155Z,21.40
2023-02-06T12:40:36.358Z,19.98
2023-02-06T12:43:04.188Z,22.63
2023-02-06T12:45:34.272Z,24.42
2023-02-06T12:48:15.626Z,16.48
2023-02-06T12:50:56.705Z,20.13
2023-02-06T12:53:31.507Z,20.33
2023-02-06T12:56:00.865Z,17.52
2023-02-06T12:58:30.304Z,22.43
2023-02-06T13:01:08.285Z,19.87
2023-02-06T13:03:43.668Z,15.70
2023-02-06T13:06:12.780Z,18.50
2023-02-06T13:08:57.562Z,18.42
2023-02-06T13:11:28.669Z,24.13
2023-02-06T13:14:00.903Z,14.10
2023-02-06T13:16:39.105Z,23.90
2023-02-06T13:19:05.486Z,20.05
2023-02-06T13:21:33.958Z,20.42
2023-02-06T13:24:03.271Z,20.30
2023-02-06T13:26:48.760Z,20.70
2023-02-06T13:29:26.872Z,13.15
2023-02-06T13:32:22.584Z,31.75
2023-02-06T13:34:48.852Z,13.75
2023-02-06T13:37:33.756Z,21.58
2023-02-06T13:40:18.055Z,20.88
2023-02-06T13:42:49.360Z,30.40
2023-02-06T13:45:23.372Z,25.10
2023-02-06T13:47:49.660Z,20.13
2023-02-06T13:50:48.269Z,19.42
2023-02-06T13:53:28.427Z,21.60
2023-02-06T13:56:15.542Z,23.25
2023-02-06T13:58:52.330Z,18.65
2023-02-06T14:01:20.536Z,23.35
2023-02-06T14:03:48.590Z,23.90
2023-02-06T14:06:26.523Z,16.30
2023-02-06T14:09:11.547Z,27.08
2023-02-06T14:11:37.833Z,18.90
2023-02-06T14:14:24.763Z,21.50
2023-02-06T14:17:00.958Z,22.75
2023-02-06T14:19:46.563Z,23.35
2023-02-06T14:22:33.057Z,26.98
2023-02-06T14:25:14.658Z,23.90
2023-02-06T14:27:59.524Z,23.70
2023-02-06T14:30:25.913Z,17.77
2023-02-06T14:32:55.260Z,16.52
2023-02-06T14:35:21.803Z,22.88
2023-02-06T14:38:06.885Z,18.10
2023-02-06T14:40:39.587Z,23.67
2023-02-06T14:43:07.297Z,22.77
2023-02-06T14:45:42.061Z,22.95
2023-02-06T14:48:16.954Z,41.83
2023-02-06T14:50:46.162Z,37.42
2023-02-06T14:53:32.171Z,40.83
2023-02-06T14:56:05.572Z,33.10
2023-02-06T14:58:31.966Z,20.33
2023-02-06T15:01:11.071Z,32.38
2023-02-06T15:03:37.429Z,26.95
2023-02-06T15:06:05.980Z,22.40
2023-02-06T15:08:33.379Z,17.58
2023-02-06T15:11:02.291Z,26.70
2023-02-06T15:13:35.867Z,26.30
2023-02-06T15:16:03.613Z,23.15
2023-02-06T15:18:30.073Z,32.38
2023-02-06T15:21:01.100Z,22.65
2023-02-06T15:23:42.787Z,30.15
2023-02-06T15:26:09.026Z,19.08
2023-02-06T15:28:36.456Z,15.30
2023-02-06T15:31:02.852Z,20.75
2023-02-06T15:33:33.435Z,26.23
2023-02-06T15:38:27.068Z,17.08
2023-02-06T15:40:55.156Z,16.13
2023-02-06T15:43:24.564Z,24.38
2023-02-06T15:45:52.171Z,15.65
2023-02-06T15:48:27.856Z,20.35
2023-02-06T15:50:54.841Z,14.80
2023-02-06T15:53:28.301Z,32.38
2023-02-06T15:55:56.559Z,15.20
2023-02-06T15:58:24.006Z,11.93
2023-02-06T16:00:53.057Z,23.08
2023-02-06T16:03:22.002Z,32.05
2023-02-06T16:05:48.357Z,24.33
2023-02-06T16:08:32.760Z,20.42
2023-02-06T16:11:00.894Z,21.90
2023-02-06T16:13:28.690Z,18.48
2023-02-06T16:16:02.950Z,27.00
2023-02-06T16:18:30.842Z,12.05
2023-02-06T16:21:15.608Z,19.15
2023-02-06T16:23:50.827Z,23.42
2023-02-06T16:26:17.101Z,30.30
2023-02-06T16:28:54.889Z,20.80
2023-02-06T16:31:21.530Z,28.17
2023-02-06T16:33:49.449Z,22.13
2023-02-06T16:36:18.697Z,29.63
2023-02-06T16:38:53.998Z,23.58
2023-02-06T16:41:36.002Z,27.45
2023-02-06T16:44:03.155Z,34.45
2023-02-06T16:46:29.907Z,36.42
2023-02-06T16:48:57.921Z,23.10
2023-02-06T16:51:25.758Z,29.42
2023-02-06T16:53:52.191Z,28.40
2023-02-06T16:56:18.942Z,25.67
2023-02-06T16:58:45.283Z,25.08
2023-02-06T17:01:24.637Z,20.77
2023-02-06T17:03:51.986Z,22.45
2023-02-06T17:06:20.254Z,24.70
2023-02-06T17:08:47.324Z,30.15
2023-02-06T17:11:13.636Z,21.25
2023-02-06T17:13:39.932Z,26.88
2023-02-06T17:16:06.511Z,28.13
2023-02-06T17:18:32.795Z,30.67
2023-02-06T17:20:59.098Z,19.67
2023-02-06T17:23:25.372Z,21.60
2023-02-06T17:25:52.118Z,29.08
2023-02-06T17:28:19.264Z,31.48
2023-02-06T17:30:46.175Z,17.15
2023-02-06T17:33:12.553Z,27.38
2023-02-06T17:35:38.922Z,22.98
2023-02-06T17:38:05.954Z,19.13
2023-02-06T17:40:33.025Z,21.35
2023-02-06T17:42:59.836Z,28.63
2023-02-06T17:45:26.161Z,29.33
2023-02-06T17:47:52.524Z,17.67
2023-02-06T17:50:19.869Z,16.67
2023-02-06T17:52:46.381Z,18.10
2023-02-06T17:55:13.083Z,29.55
2023-02-06T17:57:39.512Z,22.05
2023-02-06T18:00:07.227Z,21.42
2023-02-06T18:02:33.904Z,16.58
2023-02-06T18:05:00.268Z,20.48
2023-02-06T18:07:27.284Z,22.95
2023-02-06T18:09:53.680Z,24.45
2023-02-06T18:12:19.972Z,18.83
2023-02-06T18:14:47.992Z,19.67
2023-02-06T18:17:14.334Z,15.00
2023-02-06T18:19:42.623Z,21.40
2023-02-06T18:22:09.808Z,29.55
2023-02-06T18:24:36.058Z,22.33
2023-02-06T18:27:05.569Z,19.50
2023-02-06T18:29:43.638Z,15.75
2023-02-06T18:32:14.773Z,16.73
2023-02-06T18:34:41.400Z,19.92
2023-02-06T18:37:09.521Z,25.35
2023-02-06T18:39:36.960Z,27.40
2023-02-06T18:42:21.614Z,16.00
2023-02-06T18:44:47.889Z,15.10
2023-02-06T18:47:15.218Z,19.88
2023-02-06T18:49:41.536Z,24.20
2023-02-06T18:52:08.091Z,20.98
2023-02-06T18:54:35.276Z,18.63
2023-02-06T18:57:02.044Z,19.88
2023-02-06T18:59:28.357Z,16.80
2023-02-06T19:01:54.697Z,20.55
2023-02-06T19:04:21.272Z,23.65
2023-02-06T19:06:48.145Z,12.90
2023-02-06T19:09:14.537Z,25.92
2023-02-06T19:11:41.753Z,20.58
2023-02-06T19:14:09.137Z,18.05
2023-02-06T19:16:38.361Z,26.25
2023-02-06T19:19:07.650Z,20.67
2023-02-06T19:21:34.836Z,31.50
2023-02-06T19:24:01.258Z,33.13
2023-02-06T19:26:28.111Z,32.58
2023-02-06T19:28:54.699Z,18.25
2023-02-06T19:31:24.058Z,25.65
2023-02-06T19:33:51.488Z,26.80
2023-02-06T19:36:18.290Z,22.25
2023-02-06T19:38:44.580Z,22.13
2023-02-06T19:41:12.857Z,33.75
2023-02-06T19:43:39.612Z,26.40
2023-02-06T19:46:11.766Z,18.42
2023-02-06T19:48:38.569Z,22.63
2023-02-06T19:51:06.020Z,29.73
2023-02-06T19:53:34.152Z,22.70
2023-02-06T19:56:01.284Z,16.30
2023-02-06T19:58:30.812Z,19.67
2023-02-06T20:01:07.226Z,16.88
2023-02-06T20:03:33.573Z,18.58
2023-02-06T20:06:03.769Z,14.70
2023-02-06T20:08:30.467Z,18.05
2023-02-06T20:10:56.840Z,19.00
2023-02-06T20:13:23.207Z,22.95
2023-02-06T20:15:49.532Z,20.45
2023-02-06T20:18:15.837Z,25.05
2023-02-06T20:20:42.116Z,19.38
2023-02-06T20:23:08.346Z,22.35
2023-02-06T20:25:37.577Z,19.52
2023-02-06T20:28:04.318Z,22.50
2023-02-06T20:30:31.377Z,20.25
2023-02-06T20:32:57.709Z,22.05
2023-02-06T20:35:23.965Z,25.40
2023-02-06T20:37:50.242Z,15.93
2023-02-06T20:40:16.627Z,17.35
2023-02-06T20:42:44.713Z,11.68
2023-02-06T20:45:14.433Z,17.40
2023-02-06T20:47:40.739Z,26.50
2023-02-06T20:50:07.716Z,19.00
2023-02-06T20:52:34.553Z,10.63
2023-02-06T20:55:00.857Z,18.13
2023-02-06T20:57:27.473Z,14.27
2023-02-06T20:59:53.982Z,18.40
2023-02-06T21:02:20.399Z,19.00
2023-02-06T21:04:46.798Z,17.10
2023-02-06T21:07:13.263Z,23.08
2023-02-06T21:09:39.632Z,13.18
2023-02-06T21:12:06.115Z,25.63
2023-02-06T21:14:32.402Z,19.60
2023-02-06T21:16:58.763Z,18.10
2023-02-06T21:19:26.663Z,13.00
2023-02-06T21:21:52.945Z,12.85
2023-02-06T21:24:19.262Z,22.33
2023-02-06T21:26:45.573Z,14.68
2023-02-06T21:29:12.691Z,18.02
2023-02-06T21:31:39.198Z,20.75
2023-02-06T21:34:08.868Z,20.55
2023-02-06T21:36:36.187Z,21.55
2023-02-06T21:39:03.487Z,16.05
2023-02-06T21:41:29.772Z,26.42
2023-02-06T21:43:56.136Z,25.98
2023-02-06T21:46:22.470Z,12.18
2023-02-06T21:48:52.880Z,19.70
2023-02-06T21:51:19.276Z,21.20
2023-02-06T21:53:45.641Z,31.30
2023-02-06T21:56:14.876Z,21.88
2023-02-06T21:58:41.177Z,24.08
2023-02-06T22:01:09.034Z,20.20
2023-02-06T22:03:35.568Z,18.40
2023-02-06T22:06:11.692Z,25.15
2023-02-06T22:08:38.859Z,20.17
2023-02-06T22:11:12.157Z,28.52
2023-02-06T22:13:38.471Z,22.23
2023-02-06T22:16:05.023Z,19.13
2023-02-06T22:18:31.338Z,22.27
2023-02-06T22:21:08.239Z,18.73
2023-02-06T22:23:34.676Z,27.13
2023-02-06T22:26:01.216Z,23.77
2023-02-06T22:28:27.660Z,25.95
2023-02-06T22:30:53.972Z,22.65
2023-02-06T22:33:20.376Z,19.58
2023-02-06T22:35:46.625Z,22.08
2023-02-06T22:38:12.921Z,32.20
2023-02-06T22:40:39.224Z,20.58
2023-02-06T22:43:05.541Z,14.32
2023-02-06T22:45:34.230Z,25.38
2023-02-06T22:48:00.520Z,21.65
2023-02-06T22:50:26.974Z,20.33
2023-02-06T22:53:11.711Z,19.77
2023-02-06T22:55:57.609Z,21.30
2023-02-06T22:58:23.868Z,17.38
2023-02-06T23:00:50.178Z,25.10
2023-02-06T23:03:16.507Z,22.85
2023-02-06T23:05:42.736Z,20.35
2023-02-06T23:08:09.025Z,25.00
2023-02-06T23:10:35.267Z,21.00
2023-02-06T23:13:01.561Z,28.95
2023-02-06T23:15:27.965Z,17.13
2023-02-06T23:17:54.264Z,19.90
2023-02-06T23:20:20.559Z,18.83
2023-02-06T23:22:46.861Z,24.73
2023-02-06T23:25:13.189Z,22.25
2023-02-06T23:27:39.465Z,16.08
2023-02-06T23:30:05.977Z,11.55
2023-02-06T23:32:32.214Z,20.48
2023-02-06T23:34:59.508Z,14.23
2023-02-06T23:37:25.753Z,15.73
2023-02-06T23:39:52.040Z,26.90
2023-02-06T23:42:18.333Z,20.13
2023-02-06T23:44:44.570Z,15.52
2023-02-06T23:47:10.970Z,20.90
2023-02-06T23:49:37.235Z,21.13
2023-02-06T23:52:03.512Z,17.50
2023-02-06T23:54:29.871Z,22.92
2023-02-06T23:56:56.115Z,20.50
2023-02-06T23:59:22.389Z,22.55
